Time;durP1;ratioP1;P1;durP2;ratioP2;P2;SDS_P1;SDS_P2;PMS_P1;PMS_P2;Temp;Humidity;BMP_temperature;BMP_pressure;BME280_temperature;BME280_humidity;BME280_pressure;Samples;Min_cycle;Max_cycle;Signal;HPM_P1;HPM_P2
2024/03/17 00:00:21;;;;;;;2.35;1.02;;;5.70;99.90;;;;;;4997577;28;20041;-80
2024/03/17 00:02:47;;;;;;;2.88;1.13;;;5.70;99.90;;;;;;4990105;28;20048;-80
2024/03/17 00:05:14;;;;;;;3.13;1.27;;;5.70;99.90;;;;;;5016599;28;20194;-80
2024/03/17 00:07:40;;;;;;;3.35;1.00;;;5.70;99.90;;;;;;5033908;28;20045;-80
2024/03/17 00:10:10;;;;;;;2.42;0.73;;;5.70;99.90;;;;;;5012864;28;20099;-78
2024/03/17 00:12:37;;;;;;;2.42;1.02;;;5.70;99.90;;;;;;5001958;28;20056;-80
2024/03/17 00:15:07;;;;;;;3.42;1.20;;;5.70;99.90;;;;;;5013353;28;20041;-80
2024/03/17 00:17:34;;;;;;;2.70;1.20;;;5.70;99.90;;;;;;5018334;28;20037;-79
2024/03/17 00:20:04;;;;;;;2.58;1.10;;;5.70;99.90;;;;;;5000113;28;20040;-80
2024/03/17 00:22:30;;;;;;;4.07;1.20;;;5.70;99.90;;;;;;5013838;28;20072;-80
2024/03/17 00:24:59;;;;;;;2.03;0.88;;;5.70;99.90;;;;;;5000465;28;20049;-80
2024/03/17 00:27:25;;;;;;;3.85;2.10;;;5.70;99.90;;;;;;5005249;28;20033;-80
2024/03/17 00:29:51;;;;;;;3.80;1.20;;;5.80;99.90;;;;;;5014711;28;20048;-79
2024/03/17 00:32:17;;;;;;;3.42;1.50;;;5.70;99.90;;;;;;4993485;28;20131;-79
2024/03/17 00:34:44;;;;;;;3.13;1.05;;;5.70;99.90;;;;;;5015708;28;20040;-79
2024/03/17 00:37:10;;;;;;;2.88;0.98;;;5.80;99.90;;;;;;5022831;28;20086;-80
2024/03/17 00:39:36;;;;;;;2.50;1.10;;;5.80;99.90;;;;;;5025894;28;20090;-79
2024/03/17 00:42:04;;;;;;;3.83;1.02;;;5.80;99.90;;;;;;4984187;28;20044;-78
2024/03/17 00:44:33;;;;;;;2.20;1.23;;;5.80;99.90;;;;;;5017598;28;20041;-80
2024/03/17 00:46:59;;;;;;;2.10;1.20;;;5.80;99.90;;;;;;5007369;28;20048;-80
2024/03/17 00:49:26;;;;;;;2.33;1.13;;;5.80;99.90;;;;;;4998008;28;20571;-79
2024/03/17 00:51:52;;;;;;;2.70;1.20;;;5.70;99.90;;;;;;5015651;28;20060;-78
2024/03/17 00:54:18;;;;;;;4.60;1.60;;;5.70;99.90;;;;;;5002530;28;20123;-79
2024/03/17 00:56:44;;;;;;;6.43;1.17;;;5.70;99.90;;;;;;4993920;28;20450;-79
2024/03/17 00:59:10;;;;;;;2.95;1.00;;;5.70;99.90;;;;;;5029917;28;20411;-80
2024/03/17 01:01:36;;;;;;;3.05;1.40;;;5.70;99.90;;;;;;4986986;28;20053;-80
2024/03/17 01:04:02;;;;;;;2.50;1.40;;;5.70;99.90;;;;;;4993461;28;20160;-79
2024/03/17 01:06:29;;;;;;;2.25;1.25;;;5.60;99.90;;;;;;5007316;28;20053;-79
2024/03/17 01:08:55;;;;;;;3.50;1.10;;;5.60;99.90;;;;;;5000012;28;20518;-80
2024/03/17 01:11:21;;;;;;;3.58;1.10;;;5.70;99.90;;;;;;4992366;28;20075;-79
2024/03/17 01:13:50;;;;;;;3.40;1.55;;;5.60;99.90;;;;;;4994032;28;20439;-79
2024/03/17 01:16:16;;;;;;;2.80;1.20;;;5.60;99.90;;;;;;5000953;28;20040;-80
2024/03/17 01:18:44;;;;;;;3.60;1.42;;;5.60;99.90;;;;;;5010227;28;20431;-79
2024/03/17 01:21:11;;;;;;;2.90;1.23;;;5.60;99.90;;;;;;5019436;28;20044;-80
2024/03/17 01:23:37;;;;;;;2.33;1.00;;;5.60;99.90;;;;;;5013047;28;20527;-79
2024/03/17 01:26:03;;;;;;;3.88;1.27;;;5.60;99.90;;;;;;5016168;28;20131;-80
2024/03/17 01:28:29;;;;;;;4.30;1.15;;;5.60;99.90;;;;;;5016066;28;20500;-79
2024/03/17 01:30:55;;;;;;;4.07;1.10;;;5.60;99.90;;;;;;5011343;28;20052;-79
2024/03/17 01:33:21;;;;;;;3.40;0.95;;;5.60;99.90;;;;;;5020294;28;20051;-80
2024/03/17 01:35:47;;;;;;;2.22;0.88;;;5.50;99.90;;;;;;4986186;28;20408;-79
2024/03/17 01:38:14;;;;;;;5.25;1.80;;;5.60;99.90;;;;;;5015620;28;20098;-79
2024/03/17 01:40:39;;;;;;;1.63;0.90;;;5.60;99.90;;;;;;5037020;28;20037;-79
2024/03/17 01:43:14;;;;;;;2.90;1.40;;;5.60;99.90;;;;;;5000090;28;20433;-80
2024/03/17 01:45:40;;;;;;;3.63;1.10;;;5.60;99.90;;;;;;5037064;28;20397;-79
2024/03/17 01:48:17;;;;;;;5.07;1.20;;;5.60;99.90;;;;;;4995660;28;20044;-79
2024/03/17 01:50:44;;;;;;;2.30;0.93;;;5.60;99.90;;;;;;5021843;28;20081;-80
2024/03/17 01:53:13;;;;;;;5.57;1.33;;;5.60;99.90;;;;;;5011375;28;20049;-80
2024/03/17 01:55:42;;;;;;;3.20;1.00;;;5.60;99.90;;;;;;5015720;28;20058;-80
2024/03/17 01:58:10;;;;;;;2.90;1.23;;;5.60;99.90;;;;;;5011013;28;20055;-78
2024/03/17 02:00:38;;;;;;;2.45;0.93;;;5.60;99.90;;;;;;5035634;28;20500;-79
2024/03/17 02:03:10;;;;;;;2.85;1.30;;;5.60;99.90;;;;;;5001861;28;20049;-79
2024/03/17 02:05:37;;;;;;;3.33;0.93;;;5.60;99.90;;;;;;5031907;28;20040;-80
2024/03/17 02:08:10;;;;;;;4.22;1.30;;;5.60;99.90;;;;;;5019367;28;20037;-80
2024/03/17 02:10:39;;;;;;;2.70;0.90;;;5.60;99.90;;;;;;5019560;28;20135;-79
2024/03/17 02:13:05;;;;;;;2.40;1.02;;;5.60;99.90;;;;;;5012712;28;20045;-79
2024/03/17 02:15:32;;;;;;;4.03;1.48;;;5.50;99.90;;;;;;5021284;28;20048;-79
2024/03/17 02:17:58;;;;;;;2.33;0.98;;;5.50;99.90;;;;;;5004412;28;20045;-80
2024/03/17 02:20:54;;;;;;;5.05;1.30;;;5.50;99.90;;;;;;5020862;28;20189;-79
2024/03/17 02:23:12;;;;;;;2.88;1.23;;;5.50;99.90;;;;;;5035518;28;20051;-79
2024/03/17 02:25:38;;;;;;;2.72;1.13;;;5.50;99.90;;;;;;5007967;28;20174;-80
2024/03/17 02:28:07;;;;;;;3.30;1.13;;;5.50;99.90;;;;;;5023088;28;20044;-80
2024/03/17 02:30:33;;;;;;;4.60;1.50;;;5.40;99.90;;;;;;5022088;28;20052;-80
2024/03/17 02:32:59;;;;;;;3.00;1.65;;;5.40;99.90;;;;;;5001499;28;20094;-80
2024/03/17 02:35:26;;;;;;;2.72;1.17;;;5.40;99.90;;;;;;4994978;28;20033;-80
2024/03/17 02:37:54;;;;;;;3.50;1.00;;;5.40;99.90;;;;;;5000814;28;20143;-80
2024/03/17 02:40:20;;;;;;;2.38;1.15;;;5.40;99.90;;;;;;5037842;28;20131;-80
2024/03/17 02:42:46;;;;;;;2.90;1.40;;;5.40;99.90;;;;;;5024837;28;20075;-79
2024/03/17 02:45:12;;;;;;;3.35;1.33;;;5.50;99.90;;;;;;4994686;28;20502;-79
2024/03/17 02:47:39;;;;;;;3.13;1.23;;;5.50;99.90;;;;;;4992578;28;20052;-80
2024/03/17 02:50:06;;;;;;;4.25;1.20;;;5.60;99.90;;;;;;5001818;28;20055;-80
2024/03/17 02:52:32;;;;;;;2.67;1.20;;;5.60;99.90;;;;;;5028629;28;20093;-79
2024/03/17 02:54:58;;;;;;;3.33;1.20;;;5.60;99.90;;;;;;4996673;28;20501;-79
2024/03/17 02:57:29;;;;;;;2.08;1.15;;;5.70;99.90;;;;;;5018538;28;20556;-78
2024/03/17 02:59:58;;;;;;;3.47;1.10;;;5.70;99.90;;;;;;5004988;28;20052;-79
2024/03/17 03:02:25;;;;;;;2.15;0.98;;;5.80;99.90;;;;;;4998174;28;20048;-80
2024/03/17 03:04:51;;;;;;;4.45;1.35;;;5.80;99.90;;;;;;5011228;28;20061;-79
2024/03/17 03:07:18;;;;;;;3.53;1.30;;;5.80;99.90;;;;;;5018811;28;20067;-80
2024/03/17 03:09:44;;;;;;;2.28;1.10;;;5.70;99.90;;;;;;4995414;28;20079;-80
2024/03/17 03:12:10;;;;;;;2.47;1.30;;;5.80;99.90;;;;;;5014105;28;20052;-80
2024/03/17 03:14:36;;;;;;;2.80;1.13;;;5.80;99.90;;;;;;5005524;28;20044;-80
2024/03/17 03:17:03;;;;;;;2.55;1.00;;;5.80;99.90;;;;;;4994025;28;20055;-80
2024/03/17 03:19:30;;;;;;;2.50;1.30;;;5.90;99.90;;;;;;4989165;28;20037;-80
2024/03/17 03:21:56;;;;;;;3.15;1.20;;;5.90;99.90;;;;;;5013261;28;20036;-80
2024/03/17 03:24:22;;;;;;;2.80;1.48;;;5.90;99.90;;;;;;5020615;28;20409;-80
2024/03/17 03:26:48;;;;;;;2.38;1.13;;;6.00;99.90;;;;;;5015580;28;20500;-79
2024/03/17 03:29:14;;;;;;;2.55;1.20;;;6.00;99.90;;;;;;5004969;28;20045;-79
2024/03/17 03:31:40;;;;;;;2.28;1.20;;;6.00;99.90;;;;;;4997522;28;20463;-80
2024/03/17 03:34:10;;;;;;;2.67;1.05;;;6.00;99.90;;;;;;5025088;28;20049;-79
2024/03/17 03:36:38;;;;;;;2.13;1.20;;;6.10;99.90;;;;;;5015389;28;20102;-80
2024/03/17 03:39:05;;;;;;;2.22;0.82;;;6.00;99.90;;;;;;5023449;28;20045;-80
2024/03/17 03:41:32;;;;;;;2.53;1.30;;;6.10;99.90;;;;;;5000104;28;20048;-79
2024/03/17 03:43:58;;;;;;;2.53;1.20;;;6.10;99.90;;;;;;5021539;28;20052;-80
2024/03/17 03:46:25;;;;;;;2.92;1.48;;;6.20;99.90;;;;;;5023425;28;20496;-79
2024/03/17 03:48:52;;;;;;;4.50;1.52;;;6.20;99.90;;;;;;5014270;28;20052;-79
2024/03/17 03:51:18;;;;;;;2.83;1.23;;;6.20;99.90;;;;;;4991343;28;20049;-79
2024/03/17 03:53:44;;;;;;;3.38;1.33;;;6.20;99.90;;;;;;5000268;28;20493;-80
2024/03/17 03:56:10;;;;;;;3.05;1.45;;;6.20;99.90;;;;;;5003956;28;20064;-79
2024/03/17 03:58:39;;;;;;;2.63;1.42;;;6.20;99.90;;;;;;5007216;28;20063;-79
2024/03/17 04:01:06;;;;;;;3.05;1.35;;;6.30;99.90;;;;;;5025774;28;20044;-80
2024/03/17 04:03:33;;;;;;;4.13;1.80;;;6.30;99.90;;;;;;4999076;28;20078;-80
2024/03/17 04:06:04;;;;;;;2.35;1.27;;;6.30;99.90;;;;;;5019776;28;20406;-79
2024/03/17 04:08:32;;;;;;;2.17;1.20;;;6.30;99.90;;;;;;5023280;28;20040;-79
2024/03/17 04:10:58;;;;;;;2.97;1.35;;;6.30;99.90;;;;;;5036072;28;20424;-80
2024/03/17 04:13:24;;;;;;;3.28;1.52;;;6.40;99.90;;;;;;5006648;28;20052;-79
2024/03/17 04:15:52;;;;;;;2.38;1.40;;;6.40;99.90;;;;;;5009296;28;20049;-79
2024/03/17 04:18:18;;;;;;;2.90;1.17;;;6.40;99.90;;;;;;5016102;28;20511;-79
2024/03/17 04:20:44;;;;;;;3.33;1.45;;;6.40;99.90;;;;;;5013294;28;20136;-80
2024/03/17 04:23:10;;;;;;;3.75;1.48;;;6.40;99.90;;;;;;5006345;28;20045;-79
2024/03/17 04:25:37;;;;;;;5.35;1.67;;;6.40;99.90;;;;;;4995213;28;20140;-80
2024/03/17 04:28:04;;;;;;;3.95;1.95;;;6.40;99.90;;;;;;5008989;28;20080;-79
2024/03/17 04:30:31;;;;;;;3.22;1.70;;;6.40;99.90;;;;;;4988691;28;20049;-80
2024/03/17 04:32:58;;;;;;;3.35;1.52;;;6.40;99.90;;;;;;5002768;28;20045;-81
2024/03/17 04:35:24;;;;;;;3.38;1.40;;;6.40;99.90;;;;;;5000548;28;20045;-79
2024/03/17 04:37:50;;;;;;;4.60;1.35;;;6.40;99.90;;;;;;5005937;28;20411;-79
2024/03/17 04:40:16;;;;;;;3.15;1.65;;;6.50;99.90;;;;;;4998214;28;20041;-79
2024/03/17 04:42:42;;;;;;;3.75;1.42;;;6.40;99.90;;;;;;5019098;28;20044;-79
2024/03/17 04:45:09;;;;;;;2.53;1.23;;;6.50;99.90;;;;;;4997752;28;20051;-79
2024/03/17 04:47:35;;;;;;;2.40;1.20;;;6.50;99.90;;;;;;5006429;28;20040;-80
2024/03/17 04:50:01;;;;;;;2.65;1.38;;;6.50;99.90;;;;;;4995680;28;20102;-81
2024/03/17 04:52:28;;;;;;;2.63;1.60;;;6.50;99.90;;;;;;5017164;28;20056;-80
2024/03/17 04:54:54;;;;;;;2.83;1.30;;;6.50;99.90;;;;;;4997034;28;20449;-79
2024/03/17 04:57:20;;;;;;;2.88;1.42;;;6.50;99.90;;;;;;5018825;28;20040;-79
2024/03/17 04:59:46;;;;;;;2.53;1.50;;;6.40;99.90;;;;;;5013423;28;20494;-79
2024/03/17 05:02:12;;;;;;;3.95;1.60;;;6.40;99.90;;;;;;5019760;28;20041;-79
2024/03/17 05:04:38;;;;;;;3.25;1.52;;;6.40;99.90;;;;;;5006405;28;20044;-80
2024/03/17 05:07:04;;;;;;;5.13;1.77;;;6.40;99.90;;;;;;5011919;28;20481;-79
2024/03/17 05:09:30;;;;;;;2.90;1.40;;;6.30;99.90;;;;;;5005074;28;20136;-79
2024/03/17 05:11:59;;;;;;;3.25;1.60;;;6.30;99.90;;;;;;5043772;28;20568;-79
2024/03/17 05:14:26;;;;;;;4.05;1.70;;;6.20;99.90;;;;;;5015989;28;20041;-80
2024/03/17 05:16:52;;;;;;;3.08;1.63;;;6.30;99.90;;;;;;5009678;28;20037;-80
2024/03/17 05:19:18;;;;;;;2.78;1.45;;;6.30;99.90;;;;;;5020132;28;20052;-80
2024/03/17 05:21:45;;;;;;;2.88;1.40;;;6.30;99.90;;;;;;5019751;28;20041;-79
2024/03/17 05:24:14;;;;;;;2.90;1.38;;;6.20;99.90;;;;;;4995515;28;20192;-79
2024/03/17 05:26:42;;;;;;;2.25;1.13;;;6.30;99.90;;;;;;5024179;28;20055;-79
2024/03/17 05:29:09;;;;;;;3.30;1.35;;;6.30;99.90;;;;;;5010852;28;20102;-79
2024/03/17 05:31:35;;;;;;;3.92;1.60;;;6.30;99.90;;;;;;5017199;28;20059;-79
2024/03/17 05:34:01;;;;;;;4.13;2.10;;;6.30;99.90;;;;;;5015527;28;20046;-80
2024/03/17 05:36:27;;;;;;;3.05;1.55;;;6.30;99.90;;;;;;5004676;28;20557;-79
2024/03/17 05:38:53;;;;;;;3.08;1.50;;;6.30;99.90;;;;;;5013774;28;20401;-79
2024/03/17 05:41:19;;;;;;;2.70;1.70;;;6.40;99.90;;;;;;5018232;28;20045;-80
2024/03/17 05:43:48;;;;;;;3.20;1.60;;;6.40;99.90;;;;;;5017840;28;20052;-80
2024/03/17 05:46:14;;;;;;;3.10;1.80;;;6.40;99.90;;;;;;4967858;28;20045;-80
2024/03/17 05:48:41;;;;;;;3.70;1.90;;;6.40;99.90;;;;;;5025382;28;20044;-80
2024/03/17 05:51:08;;;;;;;4.30;1.80;;;6.40;99.90;;;;;;5014946;28;20041;-80
2024/03/17 05:53:37;;;;;;;3.92;1.90;;;6.40;99.90;;;;;;4996102;28;20489;-80
2024/03/17 05:56:04;;;;;;;4.35;1.67;;;6.40;99.90;;;;;;5004682;28;20042;-81
2024/03/17 05:58:30;;;;;;;4.68;1.95;;;6.40;99.90;;;;;;5001165;28;20045;-81
2024/03/17 06:00:58;;;;;;;3.45;1.70;;;6.40;99.90;;;;;;4997684;28;20049;-81
2024/03/17 06:03:24;;;;;;;4.10;2.13;;;6.40;99.90;;;;;;5006053;28;20042;-80
2024/03/17 06:05:50;;;;;;;3.47;1.80;;;6.40;99.90;;;;;;5001321;28;20094;-80
2024/03/17 06:08:17;;;;;;;4.60;1.90;;;6.40;99.90;;;;;;4993316;28;20049;-80
2024/03/17 06:10:49;;;;;;;3.63;1.52;;;6.40;99.90;;;;;;5004390;28;20128;-80
2024/03/17 06:13:16;;;;;;;3.45;2.08;;;6.40;99.90;;;;;;5014740;28;20517;-80
2024/03/17 06:15:49;;;;;;;3.63;1.98;;;6.40;99.90;;;;;;4998631;28;20045;-79
2024/03/17 06:18:16;;;;;;;4.05;1.80;;;6.40;99.90;;;;;;5017837;28;20053;-79
2024/03/17 06:20:44;;;;;;;3.50;1.88;;;6.50;99.90;;;;;;4991514;28;20041;-79
2024/03/17 06:23:12;;;;;;;3.95;1.70;;;6.50;99.90;;;;;;4998778;28;20225;-79
2024/03/17 06:25:46;;;;;;;3.47;1.73;;;6.50;99.90;;;;;;4990512;28;20046;-80
2024/03/17 06:28:14;;;;;;;3.17;1.88;;;6.60;99.90;;;;;;5003337;28;20057;-80
2024/03/17 06:30:41;;;;;;;3.10;1.70;;;6.60;99.90;;;;;;4994354;28;20054;-79
2024/03/17 06:33:11;;;;;;;4.63;2.22;;;6.70;99.90;;;;;;4995733;28;20041;-79
2024/03/17 06:35:37;;;;;;;3.42;1.85;;;6.70;99.90;;;;;;5000797;28;20449;-80
2024/03/17 06:38:04;;;;;;;4.57;2.50;;;6.80;99.90;;;;;;5026602;28;20040;-79
2024/03/17 06:40:30;;;;;;;4.80;2.15;;;6.80;99.90;;;;;;4993783;28;20040;-80
2024/03/17 06:42:59;;;;;;;5.95;2.47;;;6.90;99.90;;;;;;4976746;28;20034;-80
2024/03/17 06:45:26;;;;;;;4.80;2.83;;;7.00;99.90;;;;;;5012024;28;20493;-80
2024/03/17 06:47:55;;;;;;;3.65;1.90;;;7.10;99.90;;;;;;5011549;28;20049;-80
2024/03/17 06:50:22;;;;;;;4.60;2.15;;;7.20;99.90;;;;;;5011144;28;20195;-80
2024/03/17 06:52:48;;;;;;;3.40;1.90;;;7.30;99.90;;;;;;5028918;28;20494;-80
2024/03/17 06:55:14;;;;;;;3.53;2.10;;;7.40;99.90;;;;;;5016403;28;20053;-79
2024/03/17 06:57:43;;;;;;;3.53;2.00;;;7.50;99.90;;;;;;5034398;28;20473;-80
2024/03/17 07:00:13;;;;;;;4.88;2.15;;;7.60;99.90;;;;;;4997245;28;20045;-80
2024/03/17 07:02:49;;;;;;;4.20;2.30;;;7.70;99.90;;;;;;4991158;28;20045;-80
2024/03/17 07:05:16;;;;;;;3.97;1.95;;;7.80;99.90;;;;;;4995038;28;20037;-80
2024/03/17 07:07:43;;;;;;;4.18;1.92;;;7.90;99.90;;;;;;5008707;28;20045;-80
2024/03/17 07:10:11;;;;;;;3.58;1.67;;;7.90;99.90;;;;;;5008225;28;20044;-80
2024/03/17 07:12:41;;;;;;;3.70;1.40;;;8.00;99.90;;;;;;5033789;28;20041;-79
2024/03/17 07:15:08;;;;;;;3.42;1.77;;;8.00;99.90;;;;;;5020216;28;20037;-79
2024/03/17 07:17:34;;;;;;;5.82;1.85;;;8.10;99.90;;;;;;5018661;28;20041;-79
2024/03/17 07:20:01;;;;;;;4.30;1.90;;;8.10;99.90;;;;;;4983540;28;20108;-80
2024/03/17 07:22:28;;;;;;;3.75;2.00;;;8.10;99.90;;;;;;5004935;28;20038;-79
2024/03/17 07:25:00;;;;;;;3.35;1.70;;;8.10;99.90;;;;;;5018826;28;20045;-80
2024/03/17 07:27:29;;;;;;;;;;;8.10;99.90;;;;;;5025181;28;20062;-79
2024/03/17 07:29:55;;;;;;;3.38;1.80;;;8.00;99.90;;;;;;5003565;28;20305;-79
2024/03/17 07:32:23;;;;;;;3.03;1.52;;;8.00;99.90;;;;;;5000532;28;20119;-80
2024/03/17 07:34:50;;;;;;;3.00;1.42;;;8.00;99.90;;;;;;5001255;28;20041;-78
2024/03/17 07:37:16;;;;;;;2.88;1.60;;;8.10;99.90;;;;;;4995382;28;20056;-81
2024/03/17 07:39:42;;;;;;;3.45;1.83;;;8.10;99.90;;;;;;4998583;28;20401;-79
2024/03/17 07:42:08;;;;;;;4.03;2.03;;;8.20;99.90;;;;;;5018862;28;20057;-80
2024/03/17 07:44:34;;;;;;;2.85;1.20;;;8.20;99.90;;;;;;5046948;28;20048;-80
2024/03/17 07:47:03;;;;;;;3.47;1.67;;;8.30;99.90;;;;;;5017891;28;20262;-79
2024/03/17 07:49:31;;;;;;;2.80;1.75;;;8.40;99.90;;;;;;5020295;28;20049;-79
2024/03/17 07:51:57;;;;;;;3.38;1.65;;;8.60;99.90;;;;;;5020726;28;20048;-78
2024/03/17 07:54:26;;;;;;;3.53;1.90;;;8.70;99.90;;;;;;4978101;28;20484;-79
2024/03/17 07:56:53;;;;;;;2.92;1.42;;;8.80;99.90;;;;;;5016554;28;20090;-78
2024/03/17 07:59:19;;;;;;;4.65;1.65;;;8.90;99.90;;;;;;5042524;28;20062;-78
2024/03/17 08:01:48;;;;;;;3.42;1.75;;;9.00;99.80;;;;;;4996470;28;20048;-78
2024/03/17 08:04:14;;;;;;;2.83;1.23;;;9.20;99.80;;;;;;5001082;28;20160;-78
2024/03/17 08:06:43;;;;;;;4.47;2.08;;;9.30;99.60;;;;;;5013070;28;20036;-78
2024/03/17 08:09:09;;;;;;;2.83;1.25;;;9.40;99.70;;;;;;5021098;28;20049;-79
2024/03/17 08:11:38;;;;;;;2.95;1.48;;;9.50;99.40;;;;;;4997636;28;20053;-79
2024/03/17 08:14:05;;;;;;;3.70;1.70;;;9.50;99.30;;;;;;5015321;28;20040;-79
2024/03/17 08:16:31;;;;;;;3.67;1.80;;;9.50;99.20;;;;;;5022987;28;20551;-79
2024/03/17 08:18:57;;;;;;;3.55;2.05;;;9.70;99.20;;;;;;5010304;28;20053;-79
2024/03/17 08:21:24;;;;;;;3.70;1.48;;;9.70;99.10;;;;;;5033630;28;20040;-78
2024/03/17 08:23:50;;;;;;;4.00;1.75;;;9.80;99.00;;;;;;5030512;28;20045;-77
2024/03/17 08:26:16;;;;;;;3.42;1.85;;;9.90;98.90;;;;;;4990306;28;20041;-78
2024/03/17 08:28:42;;;;;;;3.03;1.30;;;9.90;98.70;;;;;;5016906;28;20040;-78
2024/03/17 08:31:08;;;;;;;3.03;1.33;;;10.00;98.70;;;;;;5019278;28;20057;-79
2024/03/17 08:33:34;;;;;;;3.83;1.90;;;10.00;98.60;;;;;;4998149;28;20068;-80
2024/03/17 08:36:02;;;;;;;2.47;1.05;;;10.10;98.50;;;;;;4990506;28;20139;-76
2024/03/17 08:38:30;;;;;;;4.10;1.55;;;10.10;98.50;;;;;;5021078;28;20044;-79
2024/03/17 08:40:58;;;;;;;3.03;1.40;;;10.20;98.40;;;;;;5010832;28;20113;-79
2024/03/17 08:43:24;;;;;;;4.00;1.58;;;10.30;98.40;;;;;;5008658;28;20041;-78
2024/03/17 08:46:03;;;;;;;2.70;1.17;;;10.40;98.30;;;;;;5020521;28;20068;-79
2024/03/17 08:48:30;;;;;;;2.85;1.20;;;10.50;98.10;;;;;;5025205;28;20049;-78
2024/03/17 08:50:57;;;;;;;2.95;1.00;;;10.60;98.10;;;;;;5005533;28;20044;-77
2024/03/17 08:53:24;;;;;;;3.22;1.17;;;10.70;98.00;;;;;;5044432;28;20055;-78
2024/03/17 08:55:50;;;;;;;2.90;1.13;;;10.80;97.90;;;;;;5017972;28;20088;-78
2024/03/17 08:58:17;;;;;;;3.03;1.45;;;10.80;97.80;;;;;;5012037;28;20052;-78
2024/03/17 09:00:43;;;;;;;3.65;1.35;;;10.80;97.70;;;;;;5016539;28;20040;-79
2024/03/17 09:03:12;;;;;;;2.25;1.25;;;10.90;97.60;;;;;;5016113;28;20047;-78
2024/03/17 09:05:39;;;;;;;3.25;1.25;;;10.90;97.60;;;;;;5014539;28;20055;-79
2024/03/17 09:08:08;;;;;;;2.35;1.35;;;10.90;97.60;;;;;;5025573;28;20041;-79
2024/03/17 09:10:41;;;;;;;2.33;1.20;;;11.00;97.50;;;;;;5026841;28;20041;-78
2024/03/17 09:13:15;;;;;;;2.88;1.30;;;11.00;97.40;;;;;;5043488;28;20477;-79
2024/03/17 09:16:01;;;;;;;2.83;1.10;;;11.00;97.40;;;;;;5004150;28;20045;-80
2024/03/17 09:18:32;;;;;;;2.63;1.13;;;11.10;97.30;;;;;;5011151;28;20037;-79
2024/03/17 09:20:59;;;;;;;2.55;1.10;;;11.10;97.30;;;;;;5008710;28;20092;-79
2024/03/17 09:23:26;;;;;;;1.98;0.90;;;11.00;97.50;;;;;;5009938;28;20029;-79
2024/03/17 09:26:00;;;;;;;3.75;1.50;;;11.10;97.20;;;;;;5012671;28;20049;-78
2024/03/17 09:28:28;;;;;;;2.75;1.17;;;11.10;97.10;;;;;;5034894;28;20060;-78
2024/03/17 09:30:55;;;;;;;1.88;0.82;;;11.10;97.10;;;;;;4996398;28;20135;-80
2024/03/17 09:33:25;;;;;;;2.55;1.05;;;11.20;97.00;;;;;;5007167;28;20129;-78
2024/03/17 09:36:06;;;;;;;2.00;1.20;;;11.20;96.80;;;;;;5027688;28;20136;-77
2024/03/17 09:38:33;;;;;;;2.47;1.17;;;11.10;96.80;;;;;;5019581;28;20094;-79
2024/03/17 09:41:02;;;;;;;2.20;0.98;;;11.20;96.70;;;;;;5029759;28;20052;-79
2024/03/17 09:43:35;;;;;;;2.85;1.20;;;11.20;96.70;;;;;;5017244;28;20373;-80
2024/03/17 09:46:05;;;;;;;2.10;1.10;;;11.20;96.70;;;;;;5006713;28;20109;-78
2024/03/17 09:48:32;;;;;;;3.75;1.90;;;11.20;96.70;;;;;;5008960;28;20048;-79
2024/03/17 09:51:02;;;;;;;4.22;1.20;;;11.20;96.70;;;;;;5034699;28;20060;-78
2024/03/17 09:53:30;;;;;;;3.25;1.80;;;11.20;96.60;;;;;;5014764;28;20131;-77
2024/03/17 09:56:00;;;;;;;2.75;1.60;;;11.20;96.80;;;;;;5024118;28;20477;-80
2024/03/17 09:58:26;;;;;;;3.67;2.10;;;11.20;96.40;;;;;;5021434;28;20036;-78
2024/03/17 10:00:52;;;;;;;3.47;1.50;;;11.30;96.40;;;;;;5001458;28;20049;-79
2024/03/17 10:03:44;;;;;;;3.10;1.50;;;11.30;96.30;;;;;;5005366;28;20048;-79
2024/03/17 10:06:15;;;;;;;3.10;1.58;;;11.40;96.20;;;;;;5018189;28;20071;-79
2024/03/17 10:08:43;;;;;;;2.35;1.23;;;11.40;96.20;;;;;;4979588;28;20040;-79
2024/03/17 10:11:09;;;;;;;2.80;1.45;;;11.50;96.10;;;;;;5018142;28;20559;-79
2024/03/17 10:13:35;;;;;;;3.28;1.88;;;11.50;96.00;;;;;;5025049;28;20041;-78
2024/03/17 10:16:01;;;;;;;2.78;1.60;;;11.60;95.90;;;;;;5017338;28;20049;-81
2024/03/17 10:18:27;;;;;;;3.33;1.88;;;11.70;95.80;;;;;;5006895;28;20045;-80
2024/03/17 10:21:01;;;;;;;2.92;1.73;;;11.80;95.70;;;;;;5002609;28;20132;-80
2024/03/17 10:23:28;;;;;;;3.58;1.20;;;11.90;95.90;;;;;;5018582;28;20041;-82
2024/03/17 10:25:54;;;;;;;3.22;1.83;;;12.00;95.50;;;;;;5012116;28;20059;-80
2024/03/17 10:28:20;;;;;;;3.03;1.92;;;12.10;95.40;;;;;;5015785;28;20048;-81
2024/03/17 10:31:00;;;;;;;3.90;1.67;;;12.20;95.30;;;;;;5045187;28;20048;-81
2024/03/17 10:33:29;;;;;;;3.42;1.98;;;12.30;95.00;;;;;;5022929;28;20054;-81
2024/03/17 10:36:05;;;;;;;3.78;1.63;;;12.40;95.00;;;;;;4996408;28;20037;-81
2024/03/17 10:38:31;;;;;;;5.45;1.52;;;12.50;94.90;;;;;;5007496;28;20095;-81
2024/03/17 10:40:57;;;;;;;2.97;1.20;;;12.70;94.80;;;;;;5015085;28;20045;-81
2024/03/17 10:43:27;;;;;;;3.72;1.75;;;12.80;94.70;;;;;;4998636;28;20041;-79
2024/03/17 10:45:59;;;;;;;3.97;1.90;;;12.90;94.60;;;;;;4986798;28;20076;-80
2024/03/17 10:48:32;;;;;;;3.45;1.85;;;12.90;94.40;;;;;;4991346;28;20084;-83
2024/03/17 10:51:02;;;;;;;2.80;1.58;;;12.90;94.40;;;;;;5027907;28;20041;-79
2024/03/17 10:53:30;;;;;;;4.45;2.10;;;12.90;94.40;;;;;;5024376;28;20044;-79
2024/03/17 10:56:06;;;;;;;3.45;1.83;;;12.90;94.30;;;;;;5024167;28;20044;-80
2024/03/17 10:58:46;;;;;;;3.60;2.17;;;12.90;94.20;;;;;;5012175;28;20447;-81
2024/03/17 11:01:14;;;;;;;4.28;1.88;;;12.90;94.20;;;;;;5030781;28;20492;-78
2024/03/17 11:03:40;;;;;;;3.67;2.17;;;12.90;94.20;;;;;;5021072;28;20037;-81
2024/03/17 11:06:08;;;;;;;4.82;2.50;;;12.90;94.10;;;;;;5003907;28;20044;-82
2024/03/17 11:08:35;;;;;;;4.05;1.90;;;12.90;94.10;;;;;;5015677;28;20053;-81
2024/03/17 11:11:03;;;;;;;3.22;1.70;;;12.90;94.10;;;;;;5027630;28;20428;-80
2024/03/17 11:13:33;;;;;;;2.50;1.48;;;12.90;94.10;;;;;;5032037;28;20416;-80
2024/03/17 11:16:01;;;;;;;3.40;1.65;;;12.90;94.10;;;;;;5027755;28;20393;-80
2024/03/17 11:18:37;;;;;;;6.35;2.47;;;12.90;94.00;;;;;;5024287;28;20554;-81
2024/03/17 11:21:20;;;;;;;3.00;1.50;;;13.00;93.90;;;;;;5026631;28;20546;-81
2024/03/17 11:24:21;;;;;;;2.58;1.50;;;12.90;94.00;;;;;;5016658;28;20052;-80
2024/03/17 11:26:47;;;;;;;2.85;1.55;;;12.90;94.00;;;;;;5011364;28;20085;-81
2024/03/17 11:29:28;;;;;;;3.17;1.48;;;12.80;94.20;;;;;;5037524;28;20040;-80
2024/03/17 11:31:55;;;;;;;3.35;1.83;;;12.80;94.10;;;;;;5022995;28;20060;-83
2024/03/17 11:34:29;;;;;;;2.53;1.73;;;12.80;94.10;;;;;;5004242;28;20510;-83
2024/03/17 11:36:59;;;;;;;3.75;2.05;;;12.80;94.10;;;;;;5001978;28;20231;-82
2024/03/17 11:39:49;;;;;;;3.38;1.60;;;12.80;94.10;;;;;;5013635;28;20507;-82
2024/03/17 11:42:16;;;;;;;2.50;1.80;;;12.80;94.00;;;;;;5005312;28;20049;-81
2024/03/17 11:44:45;;;;;;;4.40;2.00;;;12.80;94.10;;;;;;5004123;28;20060;-88
2024/03/17 11:47:11;;;;;;;4.18;1.75;;;12.80;94.00;;;;;;5034926;28;20049;-85
2024/03/17 11:49:43;;;;;;;3.50;1.80;;;12.90;93.90;;;;;;4997000;28;20048;-80
2024/03/17 11:52:13;;;;;;;;;;;12.90;93.80;;;;;;5022573;28;20041;-83
2024/03/17 11:54:40;;;;;;;3.30;1.80;;;12.90;94.00;;;;;;5019835;28;19921;-80
2024/03/17 11:57:24;;;;;;;4.68;1.90;;;12.90;93.90;;;;;;5017176;28;20144;-81
2024/03/17 11:59:52;;;;;;;4.95;2.55;;;12.90;93.80;;;;;;5012913;28;20043;-79
2024/03/17 12:02:29;;;;;;;4.90;2.97;;;13.00;94.10;;;;;;5022115;28;20094;-80
2024/03/17 12:05:00;;;;;;;4.18;2.40;;;13.00;93.70;;;;;;5030428;28;20052;-80
2024/03/17 12:07:29;;;;;;;5.10;2.80;;;13.00;93.60;;;;;;5034931;28;20047;-82
2024/03/17 12:09:57;;;;;;;4.43;2.60;;;13.00;93.60;;;;;;5007704;28;20052;-81
2024/03/17 12:12:30;;;;;;;4.05;2.03;;;13.00;93.50;;;;;;5021116;28;20037;-81
2024/03/17 12:15:00;;;;;;;3.50;2.17;;;12.90;93.50;;;;;;5022551;28;20493;-82
2024/03/17 12:17:26;;;;;;;3.88;2.05;;;12.90;93.50;;;;;;5030592;28;20102;-81
2024/03/17 12:19:55;;;;;;;3.70;1.98;;;12.90;93.60;;;;;;5002766;28;20056;-82
2024/03/17 12:22:24;;;;;;;3.70;1.95;;;12.90;93.60;;;;;;5005338;28;20110;-81
2024/03/17 12:24:59;;;;;;;3.30;2.08;;;12.90;93.70;;;;;;5012356;28;20048;-82
2024/03/17 12:27:29;;;;;;;5.32;1.98;;;12.90;93.70;;;;;;5018773;28;20067;-81
2024/03/17 12:29:55;;;;;;;5.05;2.00;;;12.90;93.70;;;;;;5007978;28;20067;-83
2024/03/17 12:32:24;;;;;;;3.88;1.77;;;12.90;93.70;;;;;;5010781;28;20049;-80
2024/03/17 12:34:59;;;;;;;4.88;2.50;;;12.90;93.60;;;;;;5013238;28;20045;-82
2024/03/17 12:37:36;;;;;;;5.88;2.17;;;13.00;93.60;;;;;;5026313;28;20090;-81
2024/03/17 12:40:03;;;;;;;4.55;2.55;;;13.10;93.50;;;;;;5013788;28;20068;-82
2024/03/17 12:42:31;;;;;;;5.82;2.90;;;13.10;93.40;;;;;;5019591;28;20037;-82
2024/03/17 12:44:59;;;;;;;2.78;1.70;;;13.20;93.20;;;;;;5020198;28;20055;-81
2024/03/17 12:47:30;;;;;;;3.45;1.95;;;13.30;93.10;;;;;;5024142;28;20049;-82
2024/03/17 12:50:01;;;;;;;3.17;1.90;;;13.30;93.00;;;;;;5027214;28;20053;-79
2024/03/17 12:52:27;;;;;;;3.67;2.08;;;13.40;92.90;;;;;;5020317;28;20386;-81
2024/03/17 13:01:06;;;;;;;2.95;1.50;;;13.40;92.90;;;;;;5027308;28;20044;-81
2024/03/17 13:09:54;;;;;;;3.72;1.60;;;13.40;92.80;;;;;;5080926;23;20289;-89